Página principal
METAR-TAF:

METAR-TAF

Aeroportos :

Ogden-Hinckley Airport

Ogden, Utah, Estados Unidos

latitude: 41-11-37N, longitude: 112-00-59W, altura: 1362 m

Observação actual do tempo

O boletim foi feito há 33 minutos, às 03:53 UTC
Vento calmo
Temperatura -6°C
Humidade 62%
Pressão 1017 hPa
Visibilidade: 16.1 km
Céu limpo

METAR: KOGD 230353Z AUTO 00000KT 10SM CLR M06/M12 A3004 RMK AO2 SLP201 T10611117

Hora: 21:26 (04:26 UTC)

Previsão

O boletim foi feito há 4 horas e 55 minutos, às 23:31 UTC
Previsão válida de 23 às 00 UTC a 23 às 24 UTC
Vento 5 kt de nor-noroeste
Visibilidade: 10 km
Céu limpo
A partir de 23 às 0400 UTC
Vento 5 kt de su-sudeste
Visibilidade: 10 km
Céu limpo
A partir de 23 às 1200 UTC
Vento 5 kt de sul
Visibilidade: 10 km
Nuvens fragmentadasa uma altura de 8000 ft

TAF: KOGD 222331Z 2300/2324 33005KT P6SM SKC FM230400 16005KT P6SM SKC FM231200 17005KT P6SM BKN080

Observações e previsões do tempo de mais de 4000 aeroportos (mensagens METAR e TAF).

As estações disponíveis são os pontos amarelos e vermelhos sobre o mapa.

Mova o rato sobre o mapa para ver o nome da estação.

Depois clique no ponto para visualizar as observações e previsões meteorológicas.

Para alterar o mapa : clique nos botões verdes com uma cruz preta para aumentar o zoom; no botão verde com uma pitada de zoom; ou nas setas verdes para mapas adjacentes.


METAR-TAF: